createdAt,value
2018-03-04T00:01:50.220Z,3.31
2018-03-04T00:04:21.254Z,3.32
2018-03-04T00:06:52.272Z,3.40
2018-03-04T00:09:23.252Z,3.40
2018-03-04T00:11:54.224Z,3.44
2018-03-04T00:14:25.188Z,3.51
2018-03-04T00:16:56.184Z,3.56
2018-03-04T00:19:27.192Z,3.54
2018-03-04T00:21:58.193Z,3.37
2018-03-04T00:24:29.164Z,3.34
2018-03-04T00:27:00.189Z,3.33
2018-03-04T00:29:31.203Z,3.35
2018-03-04T00:32:02.193Z,3.32
2018-03-04T00:34:33.199Z,3.34
2018-03-04T00:37:04.207Z,3.39
2018-03-04T00:39:35.196Z,3.49
2018-03-04T00:42:06.218Z,3.56
2018-03-04T00:44:37.215Z,3.51
2018-03-04T00:47:08.228Z,3.42
2018-03-04T00:49:39.232Z,3.41
2018-03-04T00:52:10.213Z,3.41
2018-03-04T00:54:41.186Z,3.37
2018-03-04T00:57:12.227Z,3.34
2018-03-04T00:59:43.205Z,3.27
2018-03-04T01:02:14.205Z,3.26
2018-03-04T01:04:45.226Z,3.12
2018-03-04T01:07:16.213Z,3.12
2018-03-04T01:09:47.199Z,3.16
2018-03-04T01:12:18.188Z,3.24
2018-03-04T01:14:49.189Z,3.28
2018-03-04T01:17:20.206Z,3.35
2018-03-04T01:19:51.180Z,3.45
2018-03-04T01:22:22.143Z,3.47
2018-03-04T01:24:53.223Z,3.49
2018-03-04T01:27:24.229Z,3.45
2018-03-04T01:29:55.260Z,3.47
2018-03-04T01:32:26.241Z,3.47
2018-03-04T01:34:57.240Z,3.40
2018-03-04T01:37:28.236Z,3.36
2018-03-04T01:39:59.228Z,3.27
2018-03-04T01:42:30.245Z,3.23
2018-03-04T01:45:01.257Z,3.26
2018-03-04T01:47:32.256Z,3.27
2018-03-04T01:50:03.305Z,3.29
2018-03-04T01:52:34.301Z,3.37
2018-03-04T01:55:05.341Z,3.47
2018-03-04T01:57:36.351Z,3.48
2018-03-04T02:00:07.333Z,3.49
2018-03-04T02:02:38.332Z,3.51
2018-03-04T02:05:09.337Z,3.58
2018-03-04T02:07:40.325Z,3.57
2018-03-04T02:10:11.400Z,3.50
2018-03-04T02:12:42.419Z,3.49
2018-03-04T02:15:13.391Z,3.37
2018-03-04T02:17:44.417Z,3.34
2018-03-04T02:20:15.370Z,3.37
2018-03-04T02:22:46.352Z,3.44
2018-03-04T02:25:17.287Z,3.44
2018-03-04T02:27:48.290Z,3.39
2018-03-04T02:30:19.271Z,3.36
2018-03-04T02:32:50.309Z,3.32
2018-03-04T02:35:21.276Z,3.30
2018-03-04T02:37:52.305Z,3.29
2018-03-04T02:40:23.250Z,3.32
2018-03-04T02:42:54.229Z,3.37
2018-03-04T02:45:25.223Z,3.39
2018-03-04T02:47:56.206Z,3.35
2018-03-04T02:50:27.229Z,3.30
2018-03-04T02:52:58.247Z,3.34
2018-03-04T02:55:29.289Z,3.26
2018-03-04T02:58:07.348Z,3.26
2018-03-04T03:00:38.338Z,3.17
2018-03-04T03:03:09.341Z,3.18
2018-03-04T03:05:40.365Z,3.19
2018-03-04T03:08:11.379Z,3.21
2018-03-04T03:10:42.414Z,3.30
2018-03-04T03:13:13.408Z,3.32
2018-03-04T03:15:44.391Z,3.23
2018-03-04T03:18:15.396Z,3.18
2018-03-04T03:20:46.407Z,3.17
2018-03-04T03:23:17.396Z,3.33
2018-03-04T03:25:48.339Z,3.39
2018-03-04T03:28:19.327Z,3.44
2018-03-04T03:30:50.336Z,3.44
2018-03-04T03:33:21.345Z,3.40
2018-03-04T03:35:52.354Z,3.36
2018-03-04T03:38:23.357Z,3.45
2018-03-04T03:40:54.308Z,3.49
2018-03-04T03:43:25.324Z,3.48
2018-03-04T03:45:56.308Z,3.43
2018-03-04T03:48:27.325Z,3.36
2018-03-04T03:50:58.312Z,3.32
2018-03-04T03:53:29.315Z,3.32
2018-03-04T03:56:00.342Z,3.38
2018-03-04T03:58:31.364Z,3.41
2018-03-04T04:01:02.356Z,3.39
2018-03-04T04:03:33.385Z,3.40
2018-03-04T04:06:04.375Z,3.35
2018-03-04T04:08:35.420Z,3.22
2018-03-04T04:11:06.369Z,3.23
2018-03-04T04:13:37.395Z,3.16
2018-03-04T04:16:08.343Z,3.23
2018-03-04T04:18:39.333Z,3.22
2018-03-04T04:21:10.349Z,3.17
2018-03-04T04:23:41.311Z,3.22
2018-03-04T04:26:12.315Z,3.22
2018-03-04T04:28:43.298Z,3.25
2018-03-04T04:31:14.272Z,3.26
2018-03-04T04:33:45.255Z,3.24
2018-03-04T04:36:16.245Z,3.23
2018-03-04T04:38:47.244Z,3.23
2018-03-04T04:41:18.266Z,3.17
2018-03-04T04:43:49.290Z,3.15
2018-03-04T04:46:20.309Z,3.14
2018-03-04T04:48:51.345Z,3.13
2018-03-04T04:51:22.303Z,3.10
2018-03-04T04:53:53.350Z,3.05
2018-03-04T04:56:24.313Z,3.07
2018-03-04T04:58:55.323Z,3.16
2018-03-04T05:01:26.310Z,3.07
2018-03-04T05:03:57.295Z,3.08
2018-03-04T05:06:28.274Z,3.04
2018-03-04T05:08:59.247Z,3.02
2018-03-04T05:11:30.232Z,3.08
2018-03-04T05:14:01.233Z,2.95
2018-03-04T05:16:32.252Z,2.81
2018-03-04T05:19:03.269Z,2.87
2018-03-04T05:21:34.258Z,2.76
2018-03-04T05:24:05.263Z,2.72
2018-03-04T05:26:36.274Z,2.78
2018-03-04T05:29:07.269Z,2.88
2018-03-04T05:31:38.287Z,3.00
2018-03-04T05:34:09.293Z,2.94
2018-03-04T05:36:40.253Z,3.00
2018-03-04T05:39:11.236Z,3.01
2018-03-04T05:41:42.202Z,2.97
2018-03-04T05:44:13.165Z,2.89
2018-03-04T05:46:44.159Z,2.90
2018-03-04T05:49:15.119Z,2.87
2018-03-04T05:51:46.108Z,2.79
2018-03-04T05:54:17.105Z,2.81
2018-03-04T05:56:48.083Z,2.88
2018-03-04T05:59:19.091Z,2.87
2018-03-04T06:01:50.069Z,3.07
2018-03-04T06:04:21.075Z,3.10
2018-03-04T06:06:52.125Z,3.02
2018-03-04T06:09:23.113Z,2.94
2018-03-04T06:11:54.931Z,2.98
2018-03-04T06:14:25.937Z,2.96
2018-03-04T06:16:56.904Z,2.95
2018-03-04T06:19:27.867Z,2.98
2018-03-04T06:21:58.881Z,3.07
2018-03-04T06:24:29.847Z,3.19
2018-03-04T06:27:00.870Z,3.30
2018-03-04T06:29:31.821Z,3.45
2018-03-04T06:32:02.801Z,3.58
2018-03-04T06:34:33.784Z,3.52
2018-03-04T06:37:04.802Z,3.55
2018-03-04T06:39:35.799Z,3.67
2018-03-04T06:42:06.835Z,3.71
2018-03-04T06:44:37.827Z,3.70
2018-03-04T06:47:08.971Z,3.64
2018-03-04T06:49:39.963Z,3.59
2018-03-04T06:52:11.012Z,3.58
2018-03-04T06:54:42.034Z,3.56
2018-03-04T06:57:13.046Z,3.56
2018-03-04T06:59:44.101Z,3.55
2018-03-04T07:02:15.079Z,3.55
2018-03-04T07:04:46.123Z,3.53
2018-03-04T07:07:17.162Z,3.69
2018-03-04T07:09:48.179Z,3.82
2018-03-04T07:12:19.207Z,3.97
2018-03-04T07:14:50.373Z,4.19
2018-03-04T07:17:21.391Z,4.27
2018-03-04T07:19:52.351Z,4.41
2018-03-04T07:22:23.345Z,4.45
2018-03-04T07:24:54.373Z,4.45
2018-03-04T07:27:25.375Z,4.41
2018-03-04T07:29:56.353Z,4.33
2018-03-04T07:32:27.371Z,4.52
2018-03-04T07:34:58.338Z,4.70
2018-03-04T07:37:29.378Z,4.93
2018-03-04T07:40:00.397Z,5.14
2018-03-04T07:42:31.366Z,5.28
2018-03-04T07:45:02.388Z,5.38
2018-03-04T07:47:33.370Z,5.49
2018-03-04T07:50:04.417Z,5.67
2018-03-04T07:52:35.374Z,5.84
2018-03-04T07:55:06.395Z,6.05
2018-03-04T07:57:37.396Z,6.13
2018-03-04T08:00:08.374Z,6.15
2018-03-04T08:02:39.319Z,6.30
2018-03-04T08:05:17.352Z,6.51
2018-03-04T08:07:48.291Z,6.61
2018-03-04T08:10:19.291Z,6.57
2018-03-04T08:12:50.265Z,6.44
2018-03-04T08:15:21.279Z,6.49
2018-03-04T08:17:52.323Z,6.58
2018-03-04T08:20:23.331Z,6.71
2018-03-04T08:22:54.360Z,6.70
2018-03-04T08:25:35.332Z,6.75
2018-03-04T08:28:18.556Z,6.93
2018-03-04T08:30:49.546Z,7.20
2018-03-04T08:33:20.498Z,7.46
2018-03-04T08:35:51.571Z,7.33
2018-03-04T08:38:22.554Z,7.27
2018-03-04T08:40:53.609Z,7.26
2018-03-04T08:43:24.623Z,7.27
2018-03-04T08:45:55.602Z,7.20
2018-03-04T08:48:26.612Z,7.23
2018-03-04T08:50:57.587Z,7.41
2018-03-04T08:53:28.587Z,7.71
2018-03-04T08:55:59.601Z,8.04
2018-03-04T08:58:30.583Z,8.40
2018-03-04T09:01:01.508Z,8.31
2018-03-04T09:03:32.480Z,8.33
2018-03-04T09:06:03.461Z,8.25
2018-03-04T09:08:34.470Z,8.24
2018-03-04T09:11:05.468Z,8.16
2018-03-04T09:13:36.526Z,8.26
2018-03-04T09:16:07.496Z,8.25
2018-03-04T09:18:38.525Z,8.39
2018-03-04T09:21:09.498Z,8.25
2018-03-04T09:23:40.488Z,8.20
2018-03-04T09:26:11.515Z,7.98
2018-03-04T09:28:42.509Z,7.87
2018-03-04T09:31:13.490Z,7.75
2018-03-04T09:33:44.497Z,7.99
2018-03-04T09:36:15.557Z,8.08
2018-03-04T09:38:46.542Z,8.50
2018-03-04T09:41:17.542Z,8.48
2018-03-04T09:43:48.549Z,8.45
2018-03-04T09:46:19.510Z,8.93
2018-03-04T09:48:50.881Z,10.09
2018-03-04T09:51:21.875Z,11.03
2018-03-04T09:53:52.844Z,10.95
2018-03-04T09:56:23.800Z,10.97
2018-03-04T09:58:54.769Z,11.41
2018-03-04T10:01:25.760Z,11.94
2018-03-04T10:03:56.783Z,12.38
2018-03-04T10:06:27.740Z,13.15
2018-03-04T10:08:58.736Z,14.78
2018-03-04T10:11:29.723Z,16.97
2018-03-04T10:14:00.684Z,18.33
2018-03-04T10:16:31.663Z,19.34
2018-03-04T10:19:02.657Z,20.05
2018-03-04T10:21:33.656Z,20.10
2018-03-04T10:24:04.691Z,20.80
2018-03-04T10:26:35.693Z,22.00
2018-03-04T10:29:06.677Z,21.59
2018-03-04T10:31:37.674Z,20.95
2018-03-04T10:34:08.676Z,20.85
2018-03-04T10:36:39.642Z,20.30
2018-03-04T10:39:10.668Z,19.90
2018-03-04T10:41:41.665Z,20.44
2018-03-04T10:44:12.659Z,20.45
2018-03-04T10:46:43.629Z,21.56
2018-03-04T10:49:14.588Z,21.96
2018-03-04T10:51:45.598Z,21.66
2018-03-04T10:54:16.600Z,21.58
2018-03-04T10:56:47.625Z,20.95
2018-03-04T10:59:18.676Z,20.75
2018-03-04T11:01:50.700Z,20.55
2018-03-04T11:04:21.702Z,20.53
2018-03-04T11:06:52.756Z,21.28
2018-03-04T11:09:23.797Z,22.07
2018-03-04T11:11:54.875Z,21.96
2018-03-04T11:14:25.872Z,22.03
2018-03-04T11:16:56.881Z,22.29
2018-03-04T11:19:27.876Z,22.38
2018-03-04T11:21:58.915Z,22.41
2018-03-04T11:24:29.889Z,21.63
2018-03-04T11:27:00.895Z,20.46
2018-03-04T11:29:31.929Z,19.03
2018-03-04T11:32:02.920Z,17.02
2018-03-04T11:34:33.887Z,15.49
2018-03-04T11:37:04.869Z,13.60
2018-03-04T11:39:35.838Z,12.70
2018-03-04T11:42:06.846Z,12.18
2018-03-04T11:44:37.829Z,11.65
2018-03-04T11:47:08.861Z,11.58
2018-03-04T11:49:39.940Z,11.56
2018-03-04T11:52:10.883Z,11.28
2018-03-04T11:54:41.817Z,11.29
2018-03-04T11:57:12.846Z,11.02
2018-03-04T11:59:43.795Z,11.17
2018-03-04T12:02:14.799Z,11.06
2018-03-04T12:04:45.817Z,11.11
2018-03-04T12:07:16.794Z,11.20
2018-03-04T12:09:47.749Z,11.23
2018-03-04T12:12:18.755Z,11.17
2018-03-04T12:14:49.773Z,10.99
2018-03-04T12:17:20.829Z,10.76
2018-03-04T12:19:51.844Z,10.65
2018-03-04T12:22:22.930Z,10.45
2018-03-04T12:24:53.979Z,10.11
2018-03-04T12:27:24.973Z,9.66
2018-03-04T12:29:56.008Z,9.77
2018-03-04T12:32:26.946Z,9.77
2018-03-04T12:34:57.905Z,9.97
2018-03-04T12:37:28.888Z,10.23
2018-03-04T12:39:59.891Z,10.16
2018-03-04T12:42:30.901Z,10.12
2018-03-04T12:45:01.904Z,10.04
2018-03-04T12:47:32.935Z,10.04
2018-03-04T12:50:03.923Z,9.91
2018-03-04T12:52:34.943Z,10.12
2018-03-04T12:55:05.953Z,10.27
2018-03-04T12:57:36.939Z,10.47
2018-03-04T13:00:08.041Z,10.61
2018-03-04T13:02:39.040Z,10.87
2018-03-04T13:05:10.087Z,11.11
2018-03-04T13:07:41.113Z,11.16
2018-03-04T13:10:12.143Z,11.64
2018-03-04T13:12:43.132Z,11.82
2018-03-04T13:15:14.126Z,12.05
2018-03-04T13:17:46.190Z,12.15
2018-03-04T13:20:17.233Z,12.13
2018-03-04T13:22:48.291Z,12.29
2018-03-04T13:25:19.313Z,12.38
2018-03-04T13:27:50.293Z,12.30
2018-03-04T13:30:21.326Z,12.39
2018-03-04T13:32:52.317Z,12.13
2018-03-04T13:35:23.341Z,11.95
2018-03-04T13:37:54.332Z,12.02
2018-03-04T13:40:25.363Z,12.04
2018-03-04T13:42:56.337Z,11.91
2018-03-04T13:45:27.343Z,11.98
2018-03-04T13:47:58.336Z,12.06
2018-03-04T13:50:29.359Z,11.83
2018-03-04T13:53:00.361Z,11.84
2018-03-04T13:55:31.336Z,11.65
2018-03-04T13:58:02.386Z,11.36
2018-03-04T14:00:33.404Z,11.12
2018-03-04T14:03:04.418Z,11.13
2018-03-04T14:05:35.427Z,11.10
2018-03-04T14:08:06.440Z,11.05
2018-03-04T14:10:37.430Z,10.95
2018-03-04T14:13:08.432Z,11.06
2018-03-04T14:15:39.470Z,10.85
2018-03-04T14:18:10.503Z,10.80
2018-03-04T14:20:41.523Z,10.94
2018-03-04T14:23:12.618Z,11.32
2018-03-04T14:25:43.630Z,11.55
2018-03-04T14:28:14.653Z,11.47
2018-03-04T14:30:45.621Z,11.36
2018-03-04T14:33:16.598Z,11.32
2018-03-04T14:35:47.567Z,10.97
2018-03-04T14:38:18.568Z,10.70
2018-03-04T14:40:49.566Z,10.50
2018-03-04T14:43:20.546Z,10.16
2018-03-04T14:45:51.556Z,9.83
2018-03-04T14:48:22.551Z,9.67
2018-03-04T14:50:53.555Z,9.71
2018-03-04T14:53:24.583Z,9.94
2018-03-04T14:55:55.666Z,10.22
2018-03-04T14:58:26.673Z,10.61
2018-03-04T15:00:57.670Z,10.58
2018-03-04T15:03:28.684Z,10.65
2018-03-04T15:05:59.742Z,10.69
2018-03-04T15:08:30.738Z,10.37
2018-03-04T15:11:01.753Z,10.11
2018-03-04T15:13:32.778Z,9.75
2018-03-04T15:16:03.810Z,9.52
2018-03-04T15:18:34.808Z,9.29
2018-03-04T15:21:05.830Z,9.19
2018-03-04T15:23:36.841Z,9.16
2018-03-04T15:26:07.828Z,9.05
2018-03-04T15:28:38.889Z,9.16
2018-03-04T15:31:09.844Z,9.30
2018-03-04T15:33:40.843Z,9.41
2018-03-04T15:36:11.854Z,9.59
2018-03-04T15:38:42.941Z,9.73
2018-03-04T15:41:13.909Z,9.83
2018-03-04T15:43:44.896Z,9.92
2018-03-04T15:46:15.893Z,10.02
2018-03-04T15:48:46.909Z,10.01
2018-03-04T15:51:18.028Z,9.87
2018-03-04T15:53:49.036Z,9.60
2018-03-04T15:56:20.023Z,9.39
2018-03-04T15:58:51.085Z,9.22
2018-03-04T16:01:22.075Z,8.90
2018-03-04T16:03:53.105Z,8.76
2018-03-04T16:06:24.121Z,8.50
2018-03-04T16:08:55.114Z,8.26
2018-03-04T16:11:26.151Z,8.10
2018-03-04T16:13:57.173Z,7.98
2018-03-04T16:16:28.203Z,7.89
2018-03-04T16:18:59.204Z,7.72
2018-03-04T16:21:30.356Z,7.66
2018-03-04T16:24:01.356Z,7.73
2018-03-04T16:26:32.368Z,7.74
2018-03-04T16:29:03.386Z,7.75
2018-03-04T16:31:34.402Z,7.74
2018-03-04T16:34:05.431Z,7.70
2018-03-04T16:36:36.447Z,7.65
2018-03-04T16:39:07.435Z,7.57
2018-03-04T16:41:38.478Z,7.57
2018-03-04T16:44:09.453Z,7.55
2018-03-04T16:46:40.470Z,7.44
2018-03-04T16:49:11.471Z,7.35
2018-03-04T16:51:42.465Z,7.26
2018-03-04T16:54:13.447Z,7.23
2018-03-04T16:56:44.414Z,7.20
2018-03-04T16:59:15.421Z,7.17
2018-03-04T17:01:46.392Z,7.09
2018-03-04T17:04:17.434Z,7.06
2018-03-04T17:06:48.424Z,7.12
2018-03-04T17:09:19.466Z,7.17
2018-03-04T17:11:50.450Z,7.15
2018-03-04T17:14:21.454Z,7.14
2018-03-04T17:16:52.464Z,7.07
2018-03-04T17:19:23.467Z,7.01
2018-03-04T17:21:54.471Z,7.02
2018-03-04T17:24:25.483Z,7.04
2018-03-04T17:26:56.475Z,7.07
2018-03-04T17:29:27.514Z,7.09
2018-03-04T17:31:58.485Z,7.10
2018-03-04T17:34:29.490Z,7.06
2018-03-04T17:37:00.498Z,7.08
2018-03-04T17:39:31.564Z,7.12
2018-03-04T17:42:02.581Z,7.13
2018-03-04T17:44:33.593Z,7.12
2018-03-04T17:47:04.590Z,7.12
2018-03-04T17:49:35.645Z,7.07
2018-03-04T17:52:06.620Z,7.08
2018-03-04T17:54:37.643Z,7.12
2018-03-04T17:57:08.630Z,7.13
2018-03-04T17:59:39.643Z,7.01
2018-03-04T18:02:10.704Z,6.96
2018-03-04T18:04:41.702Z,6.85
2018-03-04T18:07:12.716Z,6.82
2018-03-04T18:09:43.743Z,6.76
2018-03-04T18:12:14.689Z,6.71
2018-03-04T18:14:45.736Z,6.69
2018-03-04T18:17:16.765Z,6.65
2018-03-04T18:19:47.807Z,6.64
2018-03-04T18:22:18.824Z,6.63
2018-03-04T18:24:49.818Z,6.56
2018-03-04T18:27:20.755Z,6.56
2018-03-04T18:29:51.714Z,6.52
2018-03-04T18:32:22.647Z,6.48
2018-03-04T18:34:53.653Z,6.39
2018-03-04T18:37:24.658Z,6.30
2018-03-04T18:39:55.636Z,6.29
2018-03-04T18:42:26.624Z,6.30
2018-03-04T18:44:57.659Z,6.32
2018-03-04T18:47:28.649Z,6.33
2018-03-04T18:49:59.640Z,6.31
2018-03-04T18:52:30.633Z,6.22
2018-03-04T18:55:01.666Z,6.25
2018-03-04T18:57:32.685Z,6.30
2018-03-04T19:00:03.676Z,6.34
2018-03-04T19:02:34.666Z,6.36
2018-03-04T19:05:05.665Z,6.37
2018-03-04T19:07:36.692Z,6.39
2018-03-04T19:10:07.671Z,6.31
2018-03-04T19:12:38.761Z,6.28
2018-03-04T19:15:09.781Z,6.20
2018-03-04T19:17:40.805Z,6.16
2018-03-04T19:20:11.847Z,6.09
2018-03-04T19:22:42.873Z,6.03
2018-03-04T19:25:13.931Z,5.95
2018-03-04T19:27:44.954Z,5.90
2018-03-04T19:30:15.932Z,5.87
2018-03-04T19:32:46.958Z,5.81
2018-03-04T19:35:17.957Z,5.74
2018-03-04T19:37:48.930Z,5.72
2018-03-04T19:40:19.969Z,5.69
2018-03-04T19:42:50.989Z,5.69
2018-03-04T19:45:22.017Z,5.72
2018-03-04T19:47:53.001Z,5.74
2018-03-04T19:50:24.015Z,5.77
2018-03-04T19:52:54.985Z,5.75
2018-03-04T19:55:26.064Z,5.74
2018-03-04T19:57:57.077Z,5.67
2018-03-04T20:00:28.144Z,5.64
2018-03-04T20:02:59.178Z,5.65
2018-03-04T20:05:30.231Z,5.64
2018-03-04T20:08:01.243Z,5.65
2018-03-04T20:10:32.247Z,5.63
2018-03-04T20:13:03.276Z,5.68
2018-03-04T20:15:34.237Z,5.68
2018-03-04T20:18:05.204Z,5.69
2018-03-04T20:20:36.174Z,5.68
2018-03-04T20:23:07.201Z,5.68
2018-03-04T20:25:38.169Z,5.64
2018-03-04T20:28:09.213Z,5.64
2018-03-04T20:30:40.229Z,5.59
2018-03-04T20:33:11.249Z,5.64
2018-03-04T20:35:42.262Z,5.64
2018-03-04T20:38:13.256Z,5.65
2018-03-04T20:40:44.253Z,5.72
2018-03-04T20:43:15.225Z,5.75
2018-03-04T20:45:46.238Z,5.75
2018-03-04T20:48:17.260Z,5.81
2018-03-04T20:50:48.264Z,5.83
2018-03-04T20:53:19.271Z,5.85
2018-03-04T20:55:50.277Z,5.84
2018-03-04T20:58:21.232Z,5.86
2018-03-04T21:00:52.249Z,5.86
2018-03-04T21:03:23.308Z,5.92
2018-03-04T21:05:54.288Z,5.97
2018-03-04T21:08:25.274Z,6.00
2018-03-04T21:10:56.301Z,5.98
2018-03-04T21:13:27.307Z,5.98
2018-03-04T21:15:58.306Z,5.96
2018-03-04T21:18:29.326Z,6.00
2018-03-04T21:21:00.326Z,5.97
2018-03-04T21:23:31.313Z,5.93
2018-03-04T21:26:02.950Z,5.91
2018-03-04T21:28:34.028Z,5.85
2018-03-04T21:31:04.990Z,5.82
2018-03-04T21:33:36.005Z,5.83
2018-03-04T21:36:07.024Z,5.86
2018-03-04T21:38:38.018Z,5.81
2018-03-04T21:41:08.970Z,5.77
2018-03-04T21:43:39.939Z,5.78
2018-03-04T21:46:10.904Z,5.76
2018-03-04T21:48:41.919Z,5.78
2018-03-04T21:51:12.936Z,5.75
2018-03-04T21:53:43.931Z,5.77
2018-03-04T21:56:14.923Z,5.80
2018-03-04T21:58:45.898Z,5.77
2018-03-04T22:01:16.913Z,5.76
2018-03-04T22:03:47.922Z,5.69
2018-03-04T22:06:18.956Z,5.70
2018-03-04T22:08:49.988Z,5.73
2018-03-04T22:11:20.984Z,5.79
2018-03-04T22:13:51.925Z,5.84
2018-03-04T22:16:22.914Z,5.82
2018-03-04T22:18:53.935Z,5.82
2018-03-04T22:21:24.915Z,5.84
2018-03-04T22:23:55.926Z,5.88
2018-03-04T22:26:26.966Z,5.88
2018-03-04T22:28:57.982Z,5.89
2018-03-04T22:31:28.998Z,5.84
2018-03-04T22:33:59.956Z,5.87
2018-03-04T22:36:30.967Z,5.94
2018-03-04T22:39:01.982Z,5.97
2018-03-04T22:41:33.009Z,5.98
2018-03-04T22:44:04.029Z,6.00
2018-03-04T22:46:35.117Z,6.00
2018-03-04T22:49:06.128Z,6.08
2018-03-04T22:51:37.160Z,6.12
2018-03-04T22:54:08.139Z,6.20
2018-03-04T22:56:39.153Z,6.27
2018-03-04T22:59:10.160Z,6.32
2018-03-04T23:01:41.143Z,6.38
2018-03-04T23:04:12.117Z,6.38
2018-03-04T23:06:43.100Z,6.32
2018-03-04T23:09:14.094Z,6.29
2018-03-04T23:11:45.095Z,6.27
2018-03-04T23:14:16.087Z,6.25
2018-03-04T23:16:47.152Z,6.24
2018-03-04T23:19:18.145Z,6.27
2018-03-04T23:21:49.117Z,6.30
2018-03-04T23:24:20.099Z,6.30
2018-03-04T23:26:51.141Z,6.34
2018-03-04T23:29:22.138Z,6.33
2018-03-04T23:31:53.149Z,6.26
2018-03-04T23:34:24.122Z,6.27
2018-03-04T23:36:55.089Z,6.29
2018-03-04T23:39:26.092Z,6.31
2018-03-04T23:41:57.035Z,6.34
2018-03-04T23:44:28.031Z,6.32
2018-03-04T23:46:59.011Z,6.29
2018-03-04T23:49:30.004Z,6.30
2018-03-04T23:52:00.993Z,6.25
2018-03-04T23:54:31.962Z,6.15
2018-03-04T23:57:02.986Z,6.05
2018-03-04T23:59:33.955Z,5.94
